createdAt,value
2022-08-28T00:00:21.360Z,67.30
2022-08-28T00:02:48.592Z,67.34
2022-08-28T00:05:19.257Z,67.54
2022-08-28T00:07:47.936Z,67.59
2022-08-28T00:10:19.339Z,67.86
2022-08-28T00:12:49.425Z,67.23
2022-08-28T00:15:20.762Z,67.54
2022-08-28T00:17:48.601Z,67.83
2022-08-28T00:20:17.776Z,67.61
2022-08-28T00:22:45.085Z,67.50
2022-08-28T00:25:13.780Z,67.82
2022-08-28T00:27:52.569Z,67.87
2022-08-28T00:30:32.495Z,68.00
2022-08-28T00:33:03.556Z,68.59
2022-08-28T00:35:30.520Z,68.76
2022-08-28T00:37:58.655Z,68.38
2022-08-28T00:40:32.391Z,68.94
2022-08-28T00:43:02.584Z,69.04
2022-08-28T00:45:30.770Z,69.06
2022-08-28T00:47:58.551Z,69.08
2022-08-28T00:50:29.745Z,69.25
2022-08-28T00:53:00.967Z,68.85
2022-08-28T00:55:29.075Z,69.06
2022-08-28T00:57:59.511Z,69.03
2022-08-28T01:00:32.106Z,68.93
2022-08-28T01:02:59.138Z,68.96
2022-08-28T01:05:26.970Z,69.03
2022-08-28T01:07:55.952Z,69.08
2022-08-28T01:10:24.711Z,68.97
2022-08-28T01:12:54.080Z,69.13
2022-08-28T01:15:24.643Z,69.15
2022-08-28T01:17:55.291Z,68.97
2022-08-28T01:20:26.071Z,69.08
2022-08-28T01:23:09.124Z,69.54
2022-08-28T01:25:37.801Z,69.13
2022-08-28T01:28:08.785Z,69.38
2022-08-28T01:30:35.371Z,69.15
2022-08-28T01:33:02.357Z,69.39
2022-08-28T01:35:35.447Z,69.33
2022-08-28T01:38:03.626Z,69.06
2022-08-28T01:40:36.446Z,69.32
2022-08-28T01:43:09.590Z,69.33
2022-08-28T01:45:37.771Z,69.14
2022-08-28T01:48:06.871Z,69.05
2022-08-28T01:50:34.830Z,69.22
2022-08-28T01:53:02.519Z,69.17
2022-08-28T01:55:29.538Z,68.94
2022-08-28T01:57:56.441Z,69.02
2022-08-28T02:00:27.657Z,68.78
2022-08-28T02:02:56.717Z,68.97
2022-08-28T02:05:25.281Z,69.59
2022-08-28T02:07:52.581Z,69.39
2022-08-28T02:10:24.611Z,69.25
2022-08-28T02:12:53.922Z,69.51
2022-08-28T02:15:20.478Z,68.89
2022-08-28T02:17:50.463Z,68.99
2022-08-28T02:20:17.393Z,68.63
2022-08-28T02:22:45.108Z,68.97
2022-08-28T02:25:14.067Z,69.37
2022-08-28T02:27:41.286Z,69.17
2022-08-28T02:30:10.083Z,69.29
2022-08-28T02:32:37.003Z,69.64
2022-08-28T02:35:04.313Z,69.46
2022-08-28T02:37:36.935Z,69.98
2022-08-28T02:40:04.553Z,69.79
2022-08-28T02:42:31.127Z,69.81
2022-08-28T02:44:58.039Z,69.82
2022-08-28T02:47:24.609Z,70.22
2022-08-28T02:49:51.467Z,69.69
2022-08-28T02:52:19.648Z,69.65
2022-08-28T02:54:47.526Z,70.40
2022-08-28T02:57:14.334Z,70.58
2022-08-28T02:59:40.855Z,70.20
2022-08-28T03:02:07.574Z,70.42
2022-08-28T03:04:35.640Z,70.30
2022-08-28T03:07:02.775Z,70.91
2022-08-28T03:09:30.378Z,70.81
2022-08-28T03:11:57.953Z,70.49
2022-08-28T03:14:26.256Z,70.09
2022-08-28T03:16:52.788Z,69.77
2022-08-28T03:19:19.322Z,69.88
2022-08-28T03:21:46.566Z,69.98
2022-08-28T03:24:15.693Z,70.24
2022-08-28T03:26:42.747Z,69.85
2022-08-28T03:29:09.410Z,69.75
2022-08-28T03:31:36.272Z,69.80
2022-08-28T03:34:03.228Z,70.20
2022-08-28T03:36:29.999Z,70.41
2022-08-28T03:38:59.853Z,71.03
2022-08-28T03:41:29.186Z,70.29
2022-08-28T03:43:58.479Z,70.65
2022-08-28T03:46:26.186Z,70.95
2022-08-28T03:48:54.459Z,71.03
2022-08-28T03:51:29.247Z,70.77
2022-08-28T03:53:57.490Z,71.29
2022-08-28T03:56:26.894Z,71.05
2022-08-28T03:58:57.511Z,71.32
2022-08-28T04:01:25.324Z,71.45
2022-08-28T04:03:52.889Z,70.90
2022-08-28T04:06:19.874Z,71.41
2022-08-28T04:08:47.596Z,71.74
2022-08-28T04:11:14.507Z,71.78
2022-08-28T04:13:42.145Z,71.69
2022-08-28T04:16:11.971Z,71.29
2022-08-28T04:18:41.176Z,71.31
2022-08-28T04:21:11.570Z,71.82
2022-08-28T04:23:39.706Z,71.29
2022-08-28T04:26:07.982Z,71.43
2022-08-28T04:28:35.575Z,71.45
2022-08-28T04:31:02.722Z,71.38
2022-08-28T04:33:30.753Z,71.66
2022-08-28T04:36:04.752Z,72.50
2022-08-28T04:38:31.266Z,71.79
2022-08-28T04:40:58.015Z,71.70
2022-08-28T04:43:25.651Z,71.79
2022-08-28T04:45:52.179Z,71.93
2022-08-28T04:48:19.221Z,71.22
2022-08-28T04:50:48.237Z,71.84
2022-08-28T04:53:17.891Z,71.73
2022-08-28T04:55:54.101Z,72.09
2022-08-28T04:58:23.627Z,71.91
2022-08-28T05:00:52.542Z,72.67
2022-08-28T05:03:19.152Z,72.00
2022-08-28T05:05:49.047Z,72.46
2022-08-28T05:08:18.142Z,72.62
2022-08-28T05:10:47.050Z,73.33
2022-08-28T05:13:15.710Z,73.13
2022-08-28T05:15:45.173Z,73.45
2022-08-28T05:18:14.140Z,72.97
2022-08-28T05:20:43.845Z,73.83
2022-08-28T05:23:11.420Z,73.69
2022-08-28T05:25:42.007Z,73.53
2022-08-28T05:28:12.160Z,73.30
2022-08-28T05:30:40.803Z,73.34
2022-08-28T05:33:08.960Z,73.82
2022-08-28T05:35:41.084Z,73.73
2022-08-28T05:38:08.792Z,74.57
2022-08-28T05:40:47.882Z,75.49
2022-08-28T05:43:17.004Z,75.04
2022-08-28T05:45:43.753Z,74.22
2022-08-28T05:48:11.855Z,75.14
2022-08-28T05:50:39.159Z,75.26
2022-08-28T05:53:09.741Z,76.01
2022-08-28T05:55:40.619Z,77.46
2022-08-28T05:58:25.875Z,77.76
2022-08-28T06:00:52.636Z,77.87
2022-08-28T06:03:19.215Z,78.15
2022-08-28T06:05:45.951Z,78.51
2022-08-28T06:08:13.353Z,78.31
2022-08-28T06:10:44.846Z,77.86
2022-08-28T06:13:15.229Z,77.60
2022-08-28T06:15:44.143Z,77.03
2022-08-28T06:18:11.086Z,77.05
2022-08-28T06:20:42.134Z,76.95
2022-08-28T06:23:15.557Z,76.34
2022-08-28T06:25:51.725Z,75.87
2022-08-28T06:28:22.257Z,75.59
2022-08-28T06:31:18.083Z,75.65
2022-08-28T06:33:37.952Z,74.26
2022-08-28T06:36:06.007Z,74.58
2022-08-28T06:38:32.572Z,74.08
2022-08-28T06:40:59.982Z,73.84
2022-08-28T06:43:28.917Z,72.98
2022-08-28T06:45:57.664Z,72.05
2022-08-28T06:48:27.530Z,72.42
2022-08-28T06:50:56.163Z,72.37
2022-08-28T06:53:25.366Z,72.31
2022-08-28T06:56:02.792Z,71.62
2022-08-28T06:58:29.814Z,72.05
2022-08-28T07:01:05.392Z,71.39
2022-08-28T07:03:32.405Z,70.28
2022-08-28T07:05:59.957Z,69.05
2022-08-28T07:08:28.431Z,68.73
2022-08-28T07:10:56.435Z,68.26
2022-08-28T07:13:23.395Z,68.41
2022-08-28T07:15:50.387Z,67.85
2022-08-28T07:18:17.605Z,67.89
2022-08-28T07:20:45.275Z,67.60
2022-08-28T07:23:11.863Z,67.65
2022-08-28T07:25:42.001Z,67.33
2022-08-28T07:28:09.352Z,67.45
2022-08-28T07:30:35.931Z,67.17
2022-08-28T07:33:02.911Z,66.93
2022-08-28T07:35:29.480Z,66.95
2022-08-28T07:37:56.219Z,66.78
2022-08-28T07:40:23.029Z,67.04
2022-08-28T07:43:08.120Z,66.70
2022-08-28T07:45:35.941Z,66.66
2022-08-28T07:48:11.933Z,66.32
2022-08-28T07:50:38.502Z,66.15
2022-08-28T07:53:08.164Z,66.17
2022-08-28T07:55:34.697Z,66.46
2022-08-28T07:58:02.236Z,66.09
2022-08-28T08:00:28.820Z,66.50
2022-08-28T08:02:55.292Z,65.71
2022-08-28T08:05:21.906Z,65.43
2022-08-28T08:07:48.429Z,65.52
2022-08-28T08:10:20.527Z,63.64
2022-08-28T08:12:47.255Z,64.39
2022-08-28T08:15:13.875Z,63.84
2022-08-28T08:17:40.725Z,64.01
2022-08-28T08:20:08.724Z,60.89
2022-08-28T08:22:35.789Z,63.31
2022-08-28T08:25:05.722Z,59.78
2022-08-28T08:27:33.090Z,62.13
2022-08-28T08:29:59.909Z,61.90
2022-08-28T08:32:27.984Z,61.23
2022-08-28T08:34:58.443Z,61.80
2022-08-28T08:37:25.040Z,60.32
2022-08-28T08:39:53.631Z,60.29
2022-08-28T08:42:29.181Z,58.78
2022-08-28T08:44:58.916Z,59.94
2022-08-28T08:47:48.836Z,58.57
2022-08-28T08:50:19.499Z,58.41
2022-08-28T08:53:23.559Z,58.99
2022-08-28T08:55:57.110Z,58.88
2022-08-28T08:58:32.948Z,57.86
2022-08-28T09:01:09.585Z,57.93
2022-08-28T09:03:47.908Z,54.47
2022-08-28T09:06:29.552Z,56.24
2022-08-28T09:09:01.989Z,56.19
2022-08-28T09:11:56.958Z,55.48
2022-08-28T09:14:42.638Z,56.06
2022-08-28T09:17:11.965Z,56.46
2022-08-28T09:19:38.875Z,56.44
2022-08-28T09:22:05.454Z,57.03
2022-08-28T09:24:37.805Z,56.34
2022-08-28T09:27:28.440Z,56.52
2022-08-28T09:30:07.616Z,55.94
2022-08-28T09:32:43.664Z,54.96
2022-08-28T09:35:25.859Z,55.66
2022-08-28T09:37:52.651Z,54.89
2022-08-28T09:40:49.486Z,54.67
2022-08-28T09:43:30.323Z,52.29
2022-08-28T09:46:03.237Z,55.07
2022-08-28T09:48:40.764Z,54.23
2022-08-28T09:51:23.939Z,54.87
2022-08-28T09:54:01.722Z,52.91
2022-08-28T09:56:32.170Z,51.38
2022-08-28T09:59:10.897Z,52.13
2022-08-28T10:02:11.494Z,51.79
2022-08-28T10:04:43.916Z,51.32
2022-08-28T10:07:33.651Z,50.88
2022-08-28T10:10:20.379Z,50.59
2022-08-28T10:13:09.613Z,51.25
2022-08-28T10:15:43.534Z,51.24
2022-08-28T10:18:28.714Z,52.04
2022-08-28T10:21:09.201Z,52.28
2022-08-28T10:23:49.515Z,51.71
2022-08-28T10:26:21.372Z,50.61
2022-08-28T10:29:08.321Z,50.79
2022-08-28T10:31:45.032Z,50.49
2022-08-28T10:34:54.880Z,52.02
2022-08-28T10:37:40.329Z,50.75
2022-08-28T10:40:15.191Z,50.18
2022-08-28T10:42:48.657Z,49.95
2022-08-28T10:45:20.776Z,49.49
2022-08-28T10:47:52.528Z,49.32
2022-08-28T10:50:28.095Z,49.70
2022-08-28T10:53:06.484Z,48.44
2022-08-28T10:55:43.675Z,48.39
2022-08-28T10:58:25.084Z,48.27
2022-08-28T11:00:55.477Z,48.56
2022-08-28T11:03:41.055Z,47.55
2022-08-28T11:06:15.115Z,47.91
2022-08-28T11:08:41.905Z,47.71
2022-08-28T11:11:16.617Z,47.93
2022-08-28T11:14:01.106Z,46.86
2022-08-28T11:16:32.269Z,47.68
2022-08-28T11:19:44.947Z,46.95
2022-08-28T11:22:26.672Z,46.94
2022-08-28T11:25:09.595Z,47.34
2022-08-28T11:27:39.592Z,46.34
2022-08-28T11:30:08.873Z,46.28
2022-08-28T11:32:49.772Z,45.76
2022-08-28T11:35:42.463Z,46.38
2022-08-28T11:38:10.231Z,44.91
2022-08-28T11:40:50.679Z,44.33
2022-08-28T11:43:20.931Z,45.19
2022-08-28T11:45:47.834Z,45.33
2022-08-28T11:48:43.297Z,44.23
2022-08-28T11:51:29.881Z,44.42
2022-08-28T11:54:33.905Z,43.80
2022-08-28T11:57:08.091Z,43.97
2022-08-28T11:59:43.691Z,43.97
2022-08-28T12:02:32.359Z,44.41
2022-08-28T12:04:59.185Z,44.25
2022-08-28T12:07:35.336Z,43.54
2022-08-28T12:10:05.097Z,43.87
2022-08-28T12:13:01.596Z,43.82
2022-08-28T12:15:31.097Z,44.59
2022-08-28T12:18:08.073Z,44.03
2022-08-28T12:20:46.856Z,43.52
2022-08-28T12:23:32.282Z,43.67
2022-08-28T12:26:03.035Z,43.69
2022-08-28T12:28:36.601Z,43.32
2022-08-28T12:31:08.737Z,43.54
2022-08-28T12:33:48.561Z,43.56
2022-08-28T12:36:17.443Z,42.58
2022-08-28T12:38:53.481Z,42.34
2022-08-28T12:41:21.927Z,43.14
2022-08-28T12:43:53.732Z,43.35
2022-08-28T12:46:29.245Z,43.50
2022-08-28T12:48:59.588Z,43.94
2022-08-28T12:51:31.938Z,43.95
2022-08-28T12:54:01.807Z,44.14
2022-08-28T12:56:33.961Z,42.84
2022-08-28T12:59:32.457Z,42.81
2022-08-28T13:02:04.846Z,41.74
2022-08-28T13:04:34.444Z,41.86
2022-08-28T13:07:10.852Z,41.84
2022-08-28T13:09:42.978Z,42.09
2022-08-28T13:12:19.293Z,39.41
2022-08-28T13:14:46.653Z,39.38
2022-08-28T13:17:15.511Z,39.17
2022-08-28T13:19:42.568Z,39.89
2022-08-28T13:22:33.994Z,38.97
2022-08-28T13:25:02.291Z,39.03
2022-08-28T13:27:29.296Z,39.61
2022-08-28T13:30:08.306Z,40.40
2022-08-28T13:32:39.540Z,40.13
2022-08-28T13:35:20.619Z,40.77
2022-08-28T13:37:50.524Z,41.42
2022-08-28T13:40:53.164Z,41.68
2022-08-28T13:43:11.063Z,42.63
2022-08-28T13:45:43.156Z,42.57
2022-08-28T13:48:12.034Z,42.45
2022-08-28T13:50:41.819Z,42.37
2022-08-28T13:53:11.472Z,42.74
2022-08-28T13:55:39.296Z,43.12
2022-08-28T13:58:05.841Z,43.33
2022-08-28T14:00:36.374Z,43.08
2022-08-28T14:03:21.729Z,42.39
2022-08-28T14:05:49.324Z,42.57
2022-08-28T14:08:16.000Z,42.97
2022-08-28T14:10:42.702Z,42.80
2022-08-28T14:13:09.650Z,42.75
2022-08-28T14:18:02.877Z,42.56
2022-08-28T14:20:29.438Z,42.30
2022-08-28T14:22:55.992Z,42.46
2022-08-28T14:25:22.660Z,42.35
2022-08-28T14:27:49.813Z,42.29
2022-08-28T14:30:17.375Z,42.50
2022-08-28T14:32:44.015Z,42.71
2022-08-28T14:35:11.403Z,42.56
2022-08-28T14:37:38.134Z,42.53
2022-08-28T14:40:06.638Z,42.80
2022-08-28T14:42:33.179Z,42.75
2022-08-28T14:44:59.913Z,42.61
2022-08-28T14:47:26.707Z,42.35
2022-08-28T14:49:53.284Z,42.41
2022-08-28T14:52:20.076Z,42.66
2022-08-28T14:54:46.712Z,42.67
2022-08-28T14:57:13.661Z,42.16
2022-08-28T14:59:40.284Z,41.81
2022-08-28T15:02:07.961Z,41.58
2022-08-28T15:04:36.475Z,42.04
2022-08-28T15:07:07.573Z,42.61
2022-08-28T15:09:39.953Z,43.20
2022-08-28T15:12:06.997Z,43.55
2022-08-28T15:14:34.471Z,43.45
2022-08-28T15:17:01.402Z,43.24
2022-08-28T15:19:30.177Z,43.67
2022-08-28T15:21:57.493Z,43.74
2022-08-28T15:24:28.657Z,43.67
2022-08-28T15:26:55.279Z,43.55
2022-08-28T15:29:21.851Z,43.35
2022-08-28T15:31:50.979Z,43.12
2022-08-28T15:34:23.830Z,42.42
2022-08-28T15:36:55.191Z,42.97
2022-08-28T15:39:43.327Z,42.61
2022-08-28T15:42:11.633Z,42.69
2022-08-28T15:44:39.211Z,42.54
2022-08-28T15:47:06.474Z,42.90
2022-08-28T15:49:36.067Z,43.45
2022-08-28T15:52:04.384Z,44.22
2022-08-28T15:54:32.062Z,44.57
2022-08-28T15:56:58.640Z,44.23
2022-08-28T15:59:25.799Z,44.10
2022-08-28T16:02:12.797Z,44.31
2022-08-28T16:04:39.575Z,44.26
2022-08-28T16:07:06.167Z,44.55
2022-08-28T16:09:33.154Z,44.14
2022-08-28T16:11:59.758Z,44.07
2022-08-28T16:14:26.295Z,43.92
2022-08-28T16:16:53.012Z,43.77
2022-08-28T16:19:19.669Z,44.10
2022-08-28T16:21:46.280Z,44.38
2022-08-28T16:24:12.949Z,44.66
2022-08-28T16:26:42.059Z,45.28
2022-08-28T16:29:08.691Z,46.14
2022-08-28T16:31:36.360Z,46.16
2022-08-28T16:34:03.378Z,46.09
2022-08-28T16:36:31.272Z,46.11
2022-08-28T16:39:03.670Z,46.15
2022-08-28T16:41:31.990Z,46.06
2022-08-28T16:43:58.791Z,45.95
2022-08-28T16:46:26.435Z,46.41
2022-08-28T16:48:53.977Z,46.38
2022-08-28T16:51:21.448Z,46.87
2022-08-28T16:53:48.653Z,47.42
2022-08-28T16:56:18.247Z,48.20
2022-08-28T16:58:48.663Z,47.79
2022-08-28T17:01:23.949Z,47.99
2022-08-28T17:03:54.628Z,47.88
2022-08-28T17:06:24.790Z,48.30
2022-08-28T17:08:56.463Z,48.25
2022-08-28T17:11:25.537Z,48.32
2022-08-28T17:13:52.652Z,48.02
2022-08-28T17:16:20.531Z,47.58
2022-08-28T17:18:52.233Z,46.93
2022-08-28T17:21:38.814Z,46.78
2022-08-28T17:24:05.776Z,46.31
2022-08-28T17:26:32.580Z,46.20
2022-08-28T17:28:59.031Z,46.25
2022-08-28T17:31:25.637Z,46.50
2022-08-28T17:33:52.314Z,46.85
2022-08-28T17:36:32.531Z,47.42
2022-08-28T17:39:05.891Z,47.41
2022-08-28T17:41:33.571Z,47.94
2022-08-28T17:44:00.823Z,48.29
2022-08-28T17:46:27.695Z,48.31
2022-08-28T17:48:56.075Z,48.33
2022-08-28T17:51:42.074Z,48.37
2022-08-28T17:54:13.689Z,49.08
2022-08-28T17:56:40.770Z,49.92
2022-08-28T17:59:07.798Z,49.21
2022-08-28T18:01:34.481Z,49.62
2022-08-28T18:04:01.135Z,49.79
2022-08-28T18:06:27.935Z,51.27
2022-08-28T18:08:54.535Z,50.19
2022-08-28T18:11:21.095Z,50.37
2022-08-28T18:13:47.669Z,50.23
2022-08-28T18:16:14.411Z,50.76
2022-08-28T18:18:41.721Z,50.88
2022-08-28T18:21:12.499Z,51.36
2022-08-28T18:23:40.127Z,51.19
2022-08-28T18:26:08.558Z,51.80
2022-08-28T18:28:35.486Z,51.65
2022-08-28T18:31:05.651Z,53.33
2022-08-28T18:33:32.948Z,52.63
2022-08-28T18:36:00.251Z,52.86
2022-08-28T18:38:28.536Z,53.33
2022-08-28T18:40:56.363Z,54.36
2022-08-28T18:43:23.999Z,53.86
2022-08-28T18:45:51.355Z,54.59
2022-08-28T18:48:19.185Z,54.61
2022-08-28T18:50:47.424Z,54.92
2022-08-28T18:53:16.084Z,55.26
2022-08-28T18:55:42.616Z,55.61
2022-08-28T18:58:13.265Z,55.45
2022-08-28T19:00:42.989Z,55.90
2022-08-28T19:03:10.320Z,56.33
2022-08-28T19:05:38.128Z,57.57
2022-08-28T19:08:05.385Z,56.52
2022-08-28T19:10:34.429Z,56.73
2022-08-28T19:13:02.287Z,56.85
2022-08-28T19:15:29.605Z,56.39
2022-08-28T19:17:56.481Z,56.26
2022-08-28T19:20:23.771Z,55.73
2022-08-28T19:22:50.328Z,56.97
2022-08-28T19:25:28.862Z,57.48
2022-08-28T19:27:59.331Z,57.46
2022-08-28T19:30:27.165Z,57.24
2022-08-28T19:32:53.804Z,57.87
2022-08-28T19:35:20.909Z,57.87
2022-08-28T19:37:51.135Z,57.72
2022-08-28T19:40:17.963Z,58.81
2022-08-28T19:42:44.814Z,59.48
2022-08-28T19:45:14.912Z,59.25
2022-08-28T19:47:41.776Z,59.32
2022-08-28T19:50:10.566Z,59.74
2022-08-28T19:52:37.532Z,59.68
2022-08-28T19:55:06.223Z,60.01
2022-08-28T19:57:33.753Z,60.57
2022-08-28T20:00:00.454Z,60.04
2022-08-28T20:02:28.555Z,60.46
2022-08-28T20:04:55.404Z,59.70
2022-08-28T20:07:22.564Z,59.36
2022-08-28T20:09:49.132Z,60.11
2022-08-28T20:12:16.141Z,60.34
2022-08-28T20:14:44.683Z,60.55
2022-08-28T20:17:11.303Z,59.65
2022-08-28T20:19:38.387Z,60.07
2022-08-28T20:22:04.912Z,59.65
2022-08-28T20:24:31.529Z,60.17
2022-08-28T20:26:58.190Z,60.17
2022-08-28T20:29:25.138Z,60.96
2022-08-28T20:31:52.131Z,61.23
2022-08-28T20:34:20.152Z,61.54
2022-08-28T20:36:47.350Z,61.20
2022-08-28T20:39:14.830Z,61.10
2022-08-28T20:41:42.154Z,61.01
2022-08-28T20:44:10.879Z,60.74
2022-08-28T20:46:41.283Z,60.49
2022-08-28T20:49:11.757Z,60.48
2022-08-28T20:51:57.617Z,60.10
2022-08-28T20:54:34.461Z,59.72
2022-08-28T20:57:03.849Z,59.95
2022-08-28T20:59:39.319Z,59.87
2022-08-28T21:02:08.437Z,60.20
2022-08-28T21:04:36.922Z,60.39
2022-08-28T21:07:06.070Z,60.14
2022-08-28T21:09:53.703Z,60.18
2022-08-28T21:12:20.036Z,60.19
2022-08-28T21:14:51.491Z,60.27
2022-08-28T21:17:24.389Z,60.65
2022-08-28T21:19:57.358Z,60.34
2022-08-28T21:22:23.948Z,60.50
2022-08-28T21:24:50.653Z,60.45
2022-08-28T21:27:18.612Z,60.32
2022-08-28T21:29:45.788Z,60.72
2022-08-28T21:32:12.631Z,60.55
2022-08-28T21:34:39.372Z,60.75
2022-08-28T21:37:06.502Z,60.77
2022-08-28T21:39:33.392Z,61.19
2022-08-28T21:42:00.134Z,60.47
2022-08-28T21:44:26.726Z,60.75
2022-08-28T21:46:53.579Z,60.53
2022-08-28T21:49:22.555Z,60.84
2022-08-28T21:51:49.773Z,60.98
2022-08-28T21:54:16.899Z,61.04
2022-08-28T21:56:43.494Z,60.91
2022-08-28T21:59:10.130Z,60.92
2022-08-28T22:01:36.669Z,61.00
2022-08-28T22:04:04.259Z,61.06
2022-08-28T22:06:32.473Z,61.26
2022-08-28T22:08:59.461Z,60.73
2022-08-28T22:11:26.867Z,60.69
2022-08-28T22:13:54.873Z,60.99
2022-08-28T22:16:22.295Z,61.01
2022-08-28T22:18:49.183Z,61.10
2022-08-28T22:21:37.207Z,60.67
2022-08-28T22:24:04.551Z,61.25
2022-08-28T22:26:31.324Z,61.00
2022-08-28T22:28:58.200Z,61.26
2022-08-28T22:31:25.132Z,61.31
2022-08-28T22:33:52.464Z,61.14
2022-08-28T22:36:20.530Z,61.56
2022-08-28T22:38:53.173Z,61.48
2022-08-28T22:41:20.756Z,61.12
2022-08-28T22:43:51.351Z,62.00
2022-08-28T22:46:20.643Z,61.68
2022-08-28T22:48:48.116Z,61.51
2022-08-28T22:51:18.516Z,62.00
2022-08-28T22:53:46.915Z,62.24
2022-08-28T22:56:16.188Z,62.45
2022-08-28T22:58:43.000Z,62.80
2022-08-28T23:01:19.023Z,63.54
2022-08-28T23:03:46.302Z,63.44
2022-08-28T23:06:13.774Z,63.34
2022-08-28T23:08:40.509Z,63.56
2022-08-28T23:11:07.002Z,63.70
2022-08-28T23:13:33.613Z,63.92
2022-08-28T23:16:01.482Z,63.44
2022-08-28T23:18:29.201Z,63.74
2022-08-28T23:20:56.204Z,63.52
2022-08-28T23:23:24.070Z,63.81
2022-08-28T23:25:50.822Z,63.45
2022-08-28T23:28:18.697Z,63.53
2022-08-28T23:30:49.622Z,63.38
2022-08-28T23:33:23.714Z,63.60
2022-08-28T23:35:51.022Z,63.53
2022-08-28T23:38:17.663Z,63.35
2022-08-28T23:40:44.832Z,63.07
2022-08-28T23:43:11.880Z,63.32
2022-08-28T23:45:39.956Z,63.22
2022-08-28T23:48:06.986Z,63.62
2022-08-28T23:50:34.049Z,64.04
2022-08-28T23:53:02.247Z,64.22
2022-08-28T23:55:28.941Z,64.56
2022-08-28T23:57:55.764Z,64.77
